Time;durP1;ratioP1;P1;durP2;ratioP2;P2;SDS_P1;SDS_P2;PMS_P1;PMS_P2;Temp;Humidity;BMP_temperature;BMP_pressure;BME280_temperature;BME280_humidity;BME280_pressure;Samples;Min_cycle;Max_cycle;Signal;HPM_P1;HPM_P2
2021/07/10 00:01:20;;;;;;;20.57;16.90;;;21.00;1.00;;;;;;5036522;28;20683;-79
2021/07/10 00:03:46;;;;;;;20.73;16.73;;;21.00;1.00;;;;;;5036722;28;20222;-77
2021/07/10 00:06:11;;;;;;;22.33;16.87;;;21.00;1.00;;;;;;5040038;28;20176;-77
2021/07/10 00:08:37;;;;;;;19.63;17.30;;;20.80;1.00;;;;;;5045389;28;20223;-79
2021/07/10 00:11:05;;;;;;;21.60;15.87;;;20.90;1.00;;;;;;5044874;28;20632;-78
2021/07/10 00:13:31;;;;;;;20.80;16.73;;;20.90;1.00;;;;;;5035808;28;20717;-79
2021/07/10 00:15:56;;;;;;;19.60;16.70;;;21.00;1.00;;;;;;5035404;28;20168;-76
2021/07/10 00:18:22;;;;;;;20.10;17.40;;;21.00;1.00;;;;;;5035576;28;20338;-76
2021/07/10 00:20:49;;;;;;;20.97;16.83;;;21.00;1.00;;;;;;5035706;28;20194;-79
2021/07/10 00:23:15;;;;;;;21.53;16.20;;;21.00;1.00;;;;;;5038353;28;20291;-79
2021/07/10 00:25:41;;;;;;;19.50;15.57;;;20.80;1.00;;;;;;5040434;28;20628;-78
2021/07/10 00:28:07;;;;;;;19.70;15.60;;;20.90;2.20;;;;;;5040466;28;20260;-77
2021/07/10 00:30:34;;;;;;;18.50;16.37;;;20.80;1.00;;;;;;5041362;28;20176;-79
2021/07/10 00:33:00;;;;;;;20.83;16.63;;;20.90;1.00;;;;;;5039216;28;20176;-75
2021/07/10 00:35:26;;;;;;;19.07;15.70;;;21.00;1.00;;;;;;5038001;28;20191;-77
2021/07/10 00:37:51;;;;;;;21.97;16.33;;;21.00;1.00;;;;;;5039399;28;20171;-79
2021/07/10 00:40:17;;;;;;;21.87;16.87;;;20.90;1.00;;;;;;5038100;28;20248;-77
2021/07/10 00:42:45;;;;;;;20.50;16.90;;;20.90;1.00;;;;;;5037677;28;20186;-77
2021/07/10 00:45:12;;;;;;;20.70;16.90;;;20.90;1.00;;;;;;5037871;28;20165;-79
2021/07/10 00:47:39;;;;;;;20.37;15.43;;;20.80;1.00;;;;;;5036942;28;20263;-79
2021/07/10 00:50:25;;;;;;;22.47;16.43;;;20.70;1.00;;;;;;5036557;28;20174;-75
2021/07/10 00:52:52;;;;;;;21.43;17.50;;;20.80;1.00;;;;;;5035255;28;20199;-79
2021/07/10 00:55:19;;;;;;;20.23;16.87;;;20.70;1.00;;;;;;5035647;28;20177;-79
2021/07/10 00:57:45;;;;;;;23.47;17.77;;;20.60;1.60;;;;;;5034795;28;20208;-78
2021/07/10 01:00:17;;;;;;;21.57;16.37;;;20.60;4.80;;;;;;5037112;28;20166;-79
2021/07/10 01:02:51;;;;;;;21.67;15.67;;;20.50;7.90;;;;;;5036684;28;20182;-78
2021/07/10 01:05:25;;;;;;;21.70;16.53;;;20.30;12.60;;;;;;5037682;28;20536;-78
2021/07/10 01:07:52;;;;;;;21.07;16.50;;;20.10;18.00;;;;;;5036494;28;20307;-77
2021/07/10 01:10:18;;;;;;;21.17;16.57;;;20.20;18.90;;;;;;5035379;28;20279;-78
2021/07/10 01:12:47;;;;;;;22.70;17.27;;;20.10;19.40;;;;;;5035137;28;20175;-77
2021/07/10 01:15:15;;;;;;;21.43;16.70;;;20.00;21.60;;;;;;5035420;28;20187;-77
2021/07/10 01:17:44;;;;;;;21.40;15.77;;;20.20;18.10;;;;;;5034675;28;20169;-78
2021/07/10 01:20:15;;;;;;;20.77;15.80;;;20.30;16.30;;;;;;5035282;28;20567;-77
2021/07/10 01:22:41;;;;;;;20.87;16.07;;;20.20;16.80;;;;;;5051408;28;20205;-78
2021/07/10 01:25:10;;;;;;;20.30;16.10;;;20.20;17.90;;;;;;5046317;28;20173;-78
2021/07/10 01:27:37;;;;;;;20.17;16.50;;;20.10;19.90;;;;;;5034870;28;20252;-75
2021/07/10 01:30:11;;;;;;;21.17;15.77;;;20.10;18.50;;;;;;5034450;28;20173;-78
2021/07/10 01:32:38;;;;;;;22.33;16.57;;;19.80;24.90;;;;;;5034826;28;20169;-79
2021/07/10 01:35:06;;;;;;;17.77;15.87;;;19.60;30.00;;;;;;5033368;28;20221;-76
2021/07/10 01:37:32;;;;;;;18.80;15.33;;;19.70;31.00;;;;;;5034547;28;20174;-79
2021/07/10 01:39:58;;;;;;;16.97;14.30;;;19.60;32.10;;;;;;5034425;28;20658;-79
2021/07/10 01:42:24;;;;;;;17.60;14.73;;;19.70;30.70;;;;;;5034355;28;20174;-77
2021/07/10 01:44:51;;;;;;;18.27;14.33;;;19.60;29.70;;;;;;5033903;28;20177;-78
2021/07/10 01:47:17;;;;;;;19.80;14.37;;;19.40;33.60;;;;;;5034425;28;20212;-79
2021/07/10 01:49:43;;;;;;;16.17;14.13;;;19.40;35.40;;;;;;5035197;28;20187;-77
2021/07/10 01:52:09;;;;;;;17.67;14.03;;;19.50;30.50;;;;;;5050851;28;20189;-75
2021/07/10 01:54:34;;;;;;;17.03;14.03;;;19.50;29.30;;;;;;5052908;28;20184;-75
2021/07/10 01:57:00;;;;;;;15.20;13.57;;;19.40;30.00;;;;;;5043655;28;20166;-76
2021/07/10 01:59:25;;;;;;;15.33;13.73;;;19.40;28.30;;;;;;5040362;28;20261;-76
2021/07/10 02:01:52;;;;;;;17.53;13.80;;;19.40;29.00;;;;;;5052995;28;20189;-76
2021/07/10 02:04:20;;;;;;;18.77;13.93;;;19.40;31.50;;;;;;5046015;28;20174;-78
2021/07/10 02:07:01;;;;;;;17.93;13.80;;;19.20;34.00;;;;;;5033964;28;20170;-77
2021/07/10 02:09:26;;;;;;;20.73;15.23;;;19.30;32.60;;;;;;5033742;28;20177;-75
2021/07/10 02:11:53;;;;;;;18.97;15.13;;;19.40;29.90;;;;;;5033525;28;20252;-78
2021/07/10 02:14:19;;;;;;;19.87;15.80;;;19.50;28.40;;;;;;5032874;28;20158;-76
2021/07/10 02:16:47;;;;;;;18.60;15.13;;;19.50;28.20;;;;;;5033335;28;20212;-78
2021/07/10 02:19:13;;;;;;;20.50;15.43;;;19.50;28.80;;;;;;5034513;28;20177;-76
2021/07/10 02:21:39;;;;;;;20.37;15.97;;;19.50;29.30;;;;;;5036070;28;20652;-76
2021/07/10 02:24:06;;;;;;;17.50;13.87;;;19.50;28.90;;;;;;5033266;28;20193;-77
2021/07/10 02:26:32;;;;;;;19.80;15.03;;;19.50;28.40;;;;;;5033205;28;20170;-76
2021/07/10 02:28:58;;;;;;;18.67;14.77;;;19.60;28.60;;;;;;5032918;28;20197;-78
2021/07/10 02:31:24;;;;;;;17.40;15.43;;;19.50;28.70;;;;;;5033158;28;20533;-78
2021/07/10 02:33:50;;;;;;;19.03;15.13;;;19.50;29.20;;;;;;5032869;28;20227;-78
2021/07/10 02:36:15;;;;;;;19.53;15.70;;;19.40;30.50;;;;;;5033219;28;20512;-78
2021/07/10 02:38:41;;;;;;;18.43;15.70;;;19.50;29.40;;;;;;5032976;28;20338;-77
2021/07/10 02:41:06;;;;;;;22.00;17.50;;;19.50;28.10;;;;;;5032635;28;20527;-78
2021/07/10 02:43:32;;;;;;;21.63;16.50;;;19.50;27.70;;;;;;5032934;28;20607;-77
2021/07/10 02:45:58;;;;;;;18.37;16.37;;;19.40;28.00;;;;;;5033025;28;20200;-77
2021/07/10 02:48:23;;;;;;;19.83;15.77;;;19.40;29.60;;;;;;5032756;28;20569;-79
2021/07/10 02:50:49;;;;;;;21.80;15.77;;;19.30;33.30;;;;;;5033263;28;20168;-74
2021/07/10 02:53:15;;;;;;;18.90;15.40;;;19.10;38.40;;;;;;5033550;28;20513;-75
2021/07/10 02:55:40;;;;;;;18.70;14.97;;;19.00;39.60;;;;;;5033666;28;20170;-77
2021/07/10 02:58:06;;;;;;;20.40;15.67;;;19.00;40.60;;;;;;5033323;28;20654;-74
2021/07/10 03:00:32;;;;;;;22.77;15.77;;;19.10;39.90;;;;;;5033292;28;20170;-77
2021/07/10 03:02:59;;;;;;;18.40;15.20;;;19.10;39.80;;;;;;5033176;28;20177;-78
2021/07/10 03:05:27;;;;;;;19.07;15.40;;;19.30;36.80;;;;;;5033093;28;20532;-78
2021/07/10 03:07:53;;;;;;;19.30;15.90;;;19.30;33.50;;;;;;5033241;28;20197;-78
2021/07/10 03:10:22;;;;;;;20.47;15.80;;;19.40;32.30;;;;;;5032907;28;20170;-77
2021/07/10 03:12:48;;;;;;;17.70;15.80;;;19.30;33.00;;;;;;5032815;28;20177;-80
2021/07/10 03:15:16;;;;;;;20.50;16.60;;;19.20;35.00;;;;;;5033248;28;20646;-78
2021/07/10 03:17:43;;;;;;;21.83;16.03;;;19.10;39.50;;;;;;5033271;28;20177;-75
2021/07/10 03:20:09;;;;;;;17.33;15.53;;;19.20;38.20;;;;;;5032574;28;20177;-78
2021/07/10 03:22:36;;;;;;;17.37;15.37;;;19.20;35.50;;;;;;5032606;28;20236;-79
2021/07/10 03:25:04;;;;;;;20.33;16.13;;;19.20;35.30;;;;;;5031320;28;20174;-78
2021/07/10 03:27:30;;;;;;;19.93;17.03;;;19.30;34.20;;;;;;5035840;28;20244;-79
2021/07/10 03:29:55;;;;;;;18.57;16.07;;;19.30;32.30;;;;;;5036329;28;20179;-78
2021/07/10 03:32:22;;;;;;;18.17;16.17;;;19.30;32.30;;;;;;5036147;28;20633;-79
2021/07/10 03:34:47;;;;;;;21.40;16.43;;;19.30;32.00;;;;;;5036417;28;20170;-78
2021/07/10 03:37:13;;;;;;;18.90;15.07;;;19.30;34.10;;;;;;5036776;28;20633;-77
2021/07/10 03:39:39;;;;;;;17.37;15.33;;;19.30;33.80;;;;;;5036982;28;20697;-78
2021/07/10 03:42:04;;;;;;;19.73;15.43;;;19.30;35.50;;;;;;5035245;28;20197;-78
2021/07/10 03:44:30;;;;;;;17.43;15.17;;;19.20;34.90;;;;;;5037744;28;20170;-76
2021/07/10 03:46:56;;;;;;;19.70;14.83;;;19.20;35.70;;;;;;5042049;28;20198;-77
2021/07/10 03:49:22;;;;;;;18.30;15.33;;;19.20;36.10;;;;;;5048016;28;20186;-74
2021/07/10 03:51:47;;;;;;;17.07;14.67;;;19.20;36.50;;;;;;5046688;28;20166;-76
2021/07/10 03:54:13;;;;;;;22.10;16.33;;;19.20;36.20;;;;;;5045409;28;20189;-74
2021/07/10 03:56:39;;;;;;;17.80;14.93;;;19.30;34.50;;;;;;5038123;28;20174;-78
2021/07/10 03:59:05;;;;;;;18.83;15.33;;;19.40;31.00;;;;;;5040977;28;20178;-78
2021/07/10 04:01:33;;;;;;;18.43;15.33;;;19.40;30.20;;;;;;5036638;28;20243;-79
2021/07/10 04:03:59;;;;;;;20.20;15.57;;;19.40;29.80;;;;;;5036446;28;20177;-79
2021/07/10 04:06:25;;;;;;;19.10;14.70;;;19.50;29.90;;;;;;5035785;28;20223;-78
2021/07/10 04:08:52;;;;;;;18.50;16.07;;;19.40;30.00;;;;;;5035795;28;20217;-78
2021/07/10 04:11:18;;;;;;;20.20;16.10;;;19.40;29.80;;;;;;5035389;28;20188;-77
2021/07/10 04:13:44;;;;;;;18.87;15.50;;;19.50;29.10;;;;;;5035731;28;20166;-74
2021/07/10 04:16:09;;;;;;;19.47;15.93;;;19.50;28.10;;;;;;5035684;28;20184;-79
2021/07/10 04:18:37;;;;;;;16.67;14.43;;;19.50;29.20;;;;;;5035635;28;20192;-78
2021/07/10 04:21:04;;;;;;;18.70;15.07;;;19.50;30.20;;;;;;5035599;28;20174;-74
2021/07/10 04:23:31;;;;;;;18.87;15.47;;;19.50;30.10;;;;;;5035887;28;20193;-78
2021/07/10 04:25:57;;;;;;;18.13;15.83;;;19.50;30.00;;;;;;5035590;28;20166;-76
2021/07/10 04:28:23;;;;;;;17.27;14.77;;;19.50;29.30;;;;;;5035671;28;20228;-78
2021/07/10 04:30:49;;;;;;;18.90;15.27;;;19.60;28.80;;;;;;5034295;28;20516;-77
2021/07/10 04:33:14;;;;;;;18.50;15.30;;;19.50;28.10;;;;;;5035729;28;20170;-78
2021/07/10 04:35:40;;;;;;;17.73;15.77;;;19.60;26.20;;;;;;5035713;28;20634;-78
2021/07/10 04:38:06;;;;;;;17.97;15.33;;;19.70;25.20;;;;;;5034523;28;20650;-77
2021/07/10 04:40:32;;;;;;;18.70;16.00;;;19.60;27.00;;;;;;5034850;28;20190;-78
2021/07/10 04:42:57;;;;;;;19.27;16.00;;;19.50;27.50;;;;;;5034991;28;20174;-79
2021/07/10 04:45:23;;;;;;;17.90;14.87;;;19.60;25.70;;;;;;5035155;28;20197;-77
2021/07/10 04:47:49;;;;;;;18.17;14.70;;;19.60;25.30;;;;;;5035080;28;20297;-77
2021/07/10 04:50:16;;;;;;;17.33;14.40;;;19.60;24.40;;;;;;5034107;28;20181;-78
2021/07/10 04:52:42;;;;;;;17.47;14.63;;;19.60;23.20;;;;;;5034030;28;20638;-79
2021/07/10 04:55:12;;;;;;;18.03;14.03;;;19.60;23.70;;;;;;5035057;28;20166;-79
2021/07/10 04:57:38;;;;;;;16.03;12.87;;;19.60;25.30;;;;;;5034171;28;20185;-75
2021/07/10 05:00:06;;;;;;;17.17;13.87;;;19.40;27.50;;;;;;5035036;28;20159;-77
2021/07/10 05:02:32;;;;;;;14.93;12.97;;;19.50;27.20;;;;;;5034942;28;20202;-77
2021/07/10 05:04:57;;;;;;;16.27;13.43;;;19.40;27.60;;;;;;5035235;28;20174;-78
2021/07/10 05:07:24;;;;;;;17.50;13.60;;;19.40;27.70;;;;;;5035020;28;20209;-75
2021/07/10 05:09:50;;;;;;;16.60;13.07;;;19.40;28.20;;;;;;5037712;28;20261;-80
2021/07/10 05:12:18;;;;;;;16.63;13.67;;;19.40;27.00;;;;;;5039737;28;20170;-79
2021/07/10 05:14:43;;;;;;;14.83;13.00;;;19.40;28.60;;;;;;5035829;28;20181;-75
2021/07/10 05:17:09;;;;;;;17.50;12.70;;;19.50;27.60;;;;;;5037357;28;20171;-75
2021/07/10 05:19:35;;;;;;;15.20;12.87;;;19.60;26.70;;;;;;5036085;28;20189;-78
2021/07/10 05:22:00;;;;;;;21.53;13.00;;;19.50;26.60;;;;;;5034550;28;20178;-76
2021/07/10 05:24:26;;;;;;;19.33;13.60;;;19.50;27.00;;;;;;5034489;28;20246;-78
2021/07/10 05:26:52;;;;;;;17.03;12.10;;;19.40;28.00;;;;;;5034272;28;20225;-77
2021/07/10 05:29:17;;;;;;;15.50;11.57;;;19.60;26.60;;;;;;5034246;28;20220;-78
2021/07/10 05:31:43;;;;;;;15.23;11.87;;;19.70;22.60;;;;;;5035719;28;20260;-78
2021/07/10 05:34:09;;;;;;;14.50;11.20;;;19.80;19.90;;;;;;5039860;28;20532;-77
2021/07/10 05:36:34;;;;;;;15.63;11.83;;;19.80;14.30;;;;;;5051723;28;20630;-81
2021/07/10 05:39:00;;;;;;;14.63;11.53;;;20.00;10.90;;;;;;5045478;28;20181;-77
2021/07/10 05:41:26;;;;;;;13.23;11.03;;;20.10;10.00;;;;;;5035500;28;20177;-75
2021/07/10 05:43:52;;;;;;;14.53;11.90;;;20.00;10.10;;;;;;5043053;28;20202;-76
2021/07/10 05:46:17;;;;;;;12.53;10.93;;;20.00;9.50;;;;;;5042671;28;20239;-78
2021/07/10 05:48:43;;;;;;;14.33;11.57;;;20.10;6.70;;;;;;5034149;28;20240;-78
2021/07/10 05:51:09;;;;;;;16.07;12.57;;;20.30;1.80;;;;;;5034025;28;20166;-77
2021/07/10 05:53:35;;;;;;;15.37;12.10;;;20.40;1.00;;;;;;5034544;28;20625;-77
2021/07/10 05:56:00;;;;;;;15.70;11.87;;;20.40;1.00;;;;;;5034601;28;20158;-78
2021/07/10 05:58:26;;;;;;;16.90;11.43;;;20.40;1.00;;;;;;5034562;28;20181;-75
2021/07/10 06:00:52;;;;;;;16.50;11.87;;;20.30;1.00;;;;;;5034357;28;20180;-77
2021/07/10 06:03:18;;;;;;;15.10;11.60;;;20.40;1.00;;;;;;5039903;28;20185;-74
2021/07/10 06:05:44;;;;;;;15.13;11.93;;;20.40;1.00;;;;;;5056027;28;20221;-75
2021/07/10 06:08:10;;;;;;;16.00;11.23;;;20.50;1.00;;;;;;5056142;28;20196;-75
2021/07/10 06:10:36;;;;;;;12.73;10.17;;;20.40;1.00;;;;;;5040276;28;20195;-77
2021/07/10 06:13:02;;;;;;;16.10;10.73;;;20.50;1.00;;;;;;5035095;28;20181;-76
2021/07/10 06:15:30;;;;;;;16.13;10.30;;;20.30;1.00;;;;;;5034252;28;20536;-75
2021/07/10 06:17:56;;;;;;;14.10;9.67;;;20.30;1.00;;;;;;5034051;28;20169;-78
2021/07/10 06:20:22;;;;;;;12.30;9.83;;;20.20;1.00;;;;;;5033425;28;20177;-77
2021/07/10 06:22:49;;;;;;;14.63;9.73;;;20.20;1.00;;;;;;5033512;28;20274;-79
2021/07/10 06:25:16;;;;;;;12.47;9.73;;;20.20;1.00;;;;;;5033321;28;20168;-74
2021/07/10 06:27:46;;;;;;;14.37;9.80;;;20.20;1.00;;;;;;5033395;28;20202;-76
2021/07/10 06:30:13;;;;;;;12.07;9.40;;;20.00;1.00;;;;;;5033284;28;20629;-80
2021/07/10 06:32:39;;;;;;;12.33;9.20;;;20.10;1.00;;;;;;5033304;28;20173;-74
2021/07/10 06:35:06;;;;;;;13.13;9.67;;;20.10;1.00;;;;;;5033078;28;20170;-75
2021/07/10 06:37:32;;;;;;;13.37;9.83;;;20.20;1.00;;;;;;5033340;28;20170;-77
2021/07/10 06:39:58;;;;;;;11.93;9.80;;;20.20;1.00;;;;;;5033054;28;20648;-78
2021/07/10 06:42:23;;;;;;;10.30;8.67;;;20.20;1.00;;;;;;5032974;28;20649;-74
2021/07/10 06:44:49;;;;;;;12.27;8.70;;;20.30;1.00;;;;;;5033121;28;20174;-79
2021/07/10 06:47:15;;;;;;;11.97;9.37;;;20.30;1.00;;;;;;5032928;28;20272;-78
2021/07/10 06:49:40;;;;;;;11.07;9.20;;;20.40;1.00;;;;;;5032541;28;20269;-78
2021/07/10 06:52:07;;;;;;;12.23;9.67;;;20.40;1.00;;;;;;5032951;28;20161;-75
2021/07/10 06:54:33;;;;;;;13.57;9.03;;;20.30;1.00;;;;;;5032349;28;20170;-78
2021/07/10 06:56:59;;;;;;;11.47;8.43;;;20.40;1.00;;;;;;5031642;28;20587;-75
2021/07/10 06:59:24;;;;;;;14.03;9.93;;;20.50;1.00;;;;;;5032688;28;20170;-79
2021/07/10 07:01:51;;;;;;;10.50;9.40;;;20.60;1.00;;;;;;5036960;28;20203;-78
2021/07/10 07:04:19;;;;;;;12.43;9.77;;;20.80;1.00;;;;;;5036511;28;20162;-78
2021/07/10 07:06:45;;;;;;;11.60;9.13;;;20.80;1.00;;;;;;5036740;28;20171;-75
2021/07/10 07:09:11;;;;;;;12.00;9.57;;;20.90;1.00;;;;;;5036867;28;20184;-78
2021/07/10 07:11:37;;;;;;;12.10;9.00;;;20.90;1.00;;;;;;5036673;28;20245;-76
2021/07/10 07:14:03;;;;;;;10.50;9.20;;;21.00;1.00;;;;;;5036877;28;20206;-78
2021/07/10 07:16:29;;;;;;;12.33;9.43;;;21.10;1.00;;;;;;5036667;28;20163;-76
2021/07/10 07:18:54;;;;;;;10.30;8.60;;;21.20;1.00;;;;;;5036337;28;20248;-77
2021/07/10 07:21:20;;;;;;;13.90;8.47;;;21.10;1.00;;;;;;5036257;28;20481;-80
2021/07/10 07:23:46;;;;;;;11.13;8.50;;;21.10;1.00;;;;;;5036409;28;20192;-78
2021/07/10 07:26:12;;;;;;;9.83;8.23;;;21.10;1.00;;;;;;5036423;28;20639;-79
2021/07/10 07:28:38;;;;;;;11.57;9.17;;;21.30;1.00;;;;;;5036507;28;20203;-79
2021/07/10 07:31:04;;;;;;;12.70;9.20;;;21.50;1.00;;;;;;5036117;28;20179;-76
2021/07/10 07:33:30;;;;;;;12.70;9.70;;;21.60;1.00;;;;;;5036038;28;20208;-79
2021/07/10 07:35:56;;;;;;;11.43;9.00;;;21.80;1.00;;;;;;5036216;28;20246;-76
2021/07/10 07:38:24;;;;;;;11.93;9.23;;;21.90;1.00;;;;;;5036563;28;20172;-76
2021/07/10 07:40:50;;;;;;;13.73;8.77;;;22.00;1.00;;;;;;5036253;28;20271;-75
2021/07/10 07:43:15;;;;;;;12.50;8.33;;;22.00;1.00;;;;;;5036537;28;20201;-79
2021/07/10 07:45:41;;;;;;;12.43;9.30;;;22.00;1.00;;;;;;5036304;28;20176;-79
2021/07/10 07:48:07;;;;;;;10.73;8.47;;;22.10;1.00;;;;;;5036088;28;20211;-76
2021/07/10 07:50:33;;;;;;;14.03;9.00;;;22.30;1.00;;;;;;5036081;28;20173;-79
2021/07/10 07:52:59;;;;;;;12.20;7.93;;;22.30;1.00;;;;;;5035033;28;20177;-78
2021/07/10 07:55:24;;;;;;;12.13;7.80;;;22.00;1.00;;;;;;5036237;28;20227;-77
2021/07/10 07:57:50;;;;;;;12.77;7.97;;;22.00;1.00;;;;;;5034593;28;20180;-76
2021/07/10 08:00:20;;;;;;;14.43;8.67;;;22.20;1.00;;;;;;5036045;28;20165;-75
2021/07/10 08:02:49;;;;;;;11.20;8.23;;;22.50;1.00;;;;;;5035899;28;20533;-77
2021/07/10 08:05:17;;;;;;;11.17;9.00;;;22.50;1.00;;;;;;5036238;28;20169;-78
2021/07/10 08:07:43;;;;;;;9.97;7.90;;;22.50;1.00;;;;;;5035857;28;20397;-78
2021/07/10 08:10:12;;;;;;;12.90;8.37;;;22.70;1.00;;;;;;5036090;28;20252;-78
2021/07/10 08:12:38;;;;;;;13.83;8.20;;;22.80;1.00;;;;;;5033600;28;20567;-75
2021/07/10 08:15:06;;;;;;;9.43;7.53;;;23.00;1.00;;;;;;5036277;28;20207;-75
2021/07/10 08:17:31;;;;;;;10.87;7.77;;;23.20;1.00;;;;;;5035749;28;20172;-76
2021/07/10 08:19:57;;;;;;;8.90;7.23;;;23.50;1.00;;;;;;5035900;28;20650;-79
2021/07/10 08:22:23;;;;;;;10.40;7.13;;;23.60;1.00;;;;;;5035633;28;20556;-79
2021/07/10 08:24:49;;;;;;;10.53;7.40;;;23.60;99.90;;;;;;5035334;28;20166;-77
2021/07/10 08:27:15;;;;;;;13.60;6.87;;;23.70;99.90;;;;;;5034995;28;20198;-75
2021/07/10 08:29:42;;;;;;;9.27;5.73;;;23.80;99.90;;;;;;5035307;28;20581;-77
2021/07/10 08:32:09;;;;;;;7.20;5.80;;;23.60;99.90;;;;;;5034896;28;20194;-75
2021/07/10 08:34:35;;;;;;;10.57;6.50;;;23.80;99.90;;;;;;5035365;28;20170;-75
2021/07/10 08:37:02;;;;;;;11.07;6.50;;;24.00;99.90;;;;;;5035497;28;20170;-76
2021/07/10 08:39:29;;;;;;;9.03;6.53;;;23.60;99.90;;;;;;5035495;28;20226;-75
2021/07/10 08:41:55;;;;;;;7.40;5.40;;;23.50;99.90;;;;;;5035081;28;20191;-79
2021/07/10 08:44:21;;;;;;;8.60;4.93;;;23.60;99.90;;;;;;5034988;28;20176;-79
2021/07/10 08:46:47;;;;;;;5.83;3.97;;;23.70;99.90;;;;;;5034876;28;20199;-75
2021/07/10 08:49:16;;;;;;;11.07;4.50;;;23.70;1.00;;;;;;5035366;28;20230;-79
2021/07/10 08:51:46;;;;;;;6.23;4.77;;;23.80;30.60;;;;;;5035557;28;20165;-76
2021/07/10 08:54:14;;;;;;;6.90;4.83;;;23.70;42.80;;;;;;5034995;28;20178;-79
2021/07/10 08:56:40;;;;;;;7.30;4.70;;;23.80;1.00;;;;;;5034715;28;20182;-77
2021/07/10 08:59:10;;;;;;;8.90;5.30;;;23.70;1.00;;;;;;5035247;28;20178;-80
2021/07/10 09:01:36;;;;;;;6.27;4.67;;;23.80;1.00;;;;;;5034947;28;20710;-76
2021/07/10 09:04:02;;;;;;;9.40;5.33;;;24.00;1.00;;;;;;5034612;28;20203;-75
2021/07/10 09:06:29;;;;;;;8.30;5.10;;;24.10;1.00;;;;;;5034710;28;20260;-79
2021/07/10 09:08:55;;;;;;;7.50;5.50;;;24.10;1.00;;;;;;5034112;28;20225;-75
2021/07/10 09:11:23;;;;;;;9.20;5.17;;;23.90;1.00;;;;;;5034514;28;20163;-80
2021/07/10 09:13:54;;;;;;;6.57;4.23;;;23.80;1.00;;;;;;5034408;28;20202;-75
2021/07/10 09:16:34;;;;;;;6.87;4.80;;;23.90;99.90;;;;;;5034246;28;20168;-76
2021/07/10 09:19:08;;;;;;;7.50;5.17;;;24.20;99.90;;;;;;5034603;28;20213;-79
2021/07/10 09:21:42;;;;;;;7.73;5.30;;;24.10;1.00;;;;;;5035187;28;20235;-76
2021/07/10 09:24:14;;;;;;;7.90;5.20;;;24.40;99.90;;;;;;5037075;28;20227;-77
2021/07/10 09:26:42;;;;;;;7.40;5.10;;;24.60;1.00;;;;;;5039880;28;20165;-76
2021/07/10 09:29:21;;;;;;;7.17;4.97;;;24.60;35.70;;;;;;5046782;28;20218;-76
2021/07/10 09:31:53;;;;;;;7.80;5.03;;;24.50;1.00;;;;;;5042451;28;20178;-75
2021/07/10 09:34:27;;;;;;;10.93;5.60;;;24.20;99.90;;;;;;5035030;28;20174;-78
2021/07/10 09:36:57;;;;;;;9.33;5.73;;;24.10;99.90;;;;;;5034436;28;20374;-80
2021/07/10 09:39:42;;;;;;;7.50;5.33;;;24.10;1.00;;;;;;5034327;28;20162;-77
2021/07/10 09:42:08;;;;;;;7.30;4.80;;;24.00;1.00;;;;;;5034386;28;20226;-76
2021/07/10 09:44:53;;;;;;;8.03;5.00;;;24.20;1.00;;;;;;5033862;28;20179;-78
2021/07/10 09:47:33;;;;;;;6.37;4.53;;;24.40;1.00;;;;;;5033992;28;20209;-78
2021/07/10 09:50:00;;;;;;;6.43;4.90;;;24.40;1.00;;;;;;5040545;28;20581;-75
2021/07/10 09:52:31;;;;;;;7.40;4.40;;;24.40;99.90;;;;;;5049390;28;20186;-76
2021/07/10 09:55:12;;;;;;;7.23;4.50;;;24.30;99.90;;;;;;5037582;28;20169;-76
2021/07/10 09:57:40;;;;;;;8.53;4.70;;;24.30;1.00;;;;;;5035727;28;20574;-77
2021/07/10 10:00:14;;;;;;;5.67;4.00;;;24.40;1.00;;;;;;5034731;28;20245;-78
2021/07/10 10:02:53;;;;;;;4.97;3.93;;;24.40;99.90;;;;;;5034128;28;20164;-77
2021/07/10 10:05:30;;;;;;;6.80;4.20;;;24.50;50.30;;;;;;5035405;28;20165;-76
2021/07/10 10:07:59;;;;;;;6.83;3.77;;;24.70;1.00;;;;;;5039706;28;20306;-77
2021/07/10 10:10:33;;;;;;;5.67;4.20;;;25.00;1.00;;;;;;5041583;28;20191;-76
2021/07/10 10:13:04;;;;;;;7.13;4.17;;;25.00;99.90;;;;;;5034543;28;20177;-76
2021/07/10 10:15:42;;;;;;;6.90;4.50;;;25.20;99.90;;;;;;5033649;28;20195;-79
2021/07/10 10:18:09;;;;;;;5.63;3.87;;;25.30;1.00;;;;;;5039682;28;20180;-76
2021/07/10 10:20:36;;;;;;;7.00;4.57;;;25.40;99.90;;;;;;5038955;28;20195;-76
2021/07/10 10:23:04;;;;;;;6.43;3.77;;;25.60;1.00;;;;;;5046776;28;20220;-77
2021/07/10 10:25:30;;;;;;;4.57;3.50;;;25.60;1.00;;;;;;5040443;28;20659;-75
2021/07/10 10:27:56;;;;;;;6.77;4.13;;;25.80;1.00;;;;;;5033963;28;20205;-80
2021/07/10 10:30:23;;;;;;;7.00;4.13;;;25.80;99.90;;;;;;5033799;28;20289;-77
2021/07/10 10:32:51;;;;;;;4.77;3.33;;;25.80;1.00;;;;;;5033209;28;20176;-74
2021/07/10 10:35:20;;;;;;;5.50;3.23;;;26.00;99.90;;;;;;5031436;28;20188;-77
2021/07/10 10:37:46;;;;;;;6.43;4.03;;;26.00;1.00;;;;;;5031849;28;20333;-76
2021/07/10 10:40:17;;;;;;;5.33;4.37;;;25.80;1.00;;;;;;5033128;28;20281;-78
2021/07/10 10:42:43;;;;;;;7.73;4.20;;;25.90;1.00;;;;;;5032759;28;20209;-77
2021/07/10 10:45:10;;;;;;;7.73;3.80;;;26.00;1.00;;;;;;5031946;28;20177;-78
2021/07/10 10:47:41;;;;;;;6.50;3.93;;;26.00;99.90;;;;;;5033082;28;20198;-76
2021/07/10 10:50:23;;;;;;;5.27;3.40;;;25.90;1.00;;;;;;5031568;28;20178;-77
2021/07/10 10:52:51;;;;;;;5.00;3.13;;;25.80;1.00;;;;;;5032998;28;20185;-79
2021/07/10 10:55:21;;;;;;;5.73;3.80;;;25.80;1.00;;;;;;5032953;28;20169;-80
2021/07/10 10:58:10;;;;;;;4.43;2.90;;;25.60;99.90;;;;;;5032724;28;20239;-76
2021/07/10 11:00:37;;;;;;;4.60;3.43;;;25.50;1.00;;;;;;5026705;28;20190;-77
2021/07/10 11:03:19;;;;;;;6.80;3.80;;;25.40;1.00;;;;;;5040740;28;20180;-79
2021/07/10 11:05:46;;;;;;;4.67;3.17;;;25.20;1.00;;;;;;5039403;28;20166;-77
2021/07/10 11:08:18;;;;;;;4.60;3.07;;;25.30;99.90;;;;;;5041945;28;20211;-78
2021/07/10 11:11:04;;;;;;;4.93;3.03;;;25.50;99.90;;;;;;5041236;28;20170;-80
2021/07/10 11:13:32;;;;;;;4.67;3.50;;;25.80;99.90;;;;;;5026478;28;20220;-76
2021/07/10 11:16:14;;;;;;;6.43;3.70;;;26.00;99.90;;;;;;5033246;28;20201;-77
2021/07/10 11:18:49;;;;;;;6.93;3.10;;;26.00;1.00;;;;;;5032956;28;20179;-75
2021/07/10 11:21:35;;;;;;;6.50;3.67;;;26.00;1.00;;;;;;5032990;28;20234;-79
2021/07/10 11:24:16;;;;;;;4.97;3.50;;;26.10;1.00;;;;;;5033380;28;20192;-82
2021/07/10 11:27:20;;;;;;;6.70;3.50;;;25.70;1.00;;;;;;5033563;28;20175;-77
2021/07/10 11:29:46;;;;;;;6.63;4.00;;;25.40;99.90;;;;;;5034082;28;20188;-80
2021/07/10 11:32:11;;;;;;;5.80;3.90;;;25.30;99.90;;;;;;5033263;28;20215;-77
2021/07/10 11:34:49;;;;;;;4.87;3.33;;;25.70;1.00;;;;;;5032770;28;20253;-80
2021/07/10 11:37:16;;;;;;;4.97;3.23;;;25.90;99.90;;;;;;5032844;28;20228;-76
2021/07/10 11:39:53;;;;;;;6.17;3.40;;;26.00;99.90;;;;;;5032643;28;20165;-79
2021/07/10 11:42:32;;;;;;;5.47;3.10;;;26.00;99.90;;;;;;5032688;28;20189;-77
2021/07/10 11:45:23;;;;;;;4.80;3.27;;;26.00;1.00;;;;;;5032738;28;20168;-79
2021/07/10 11:48:00;;;;;;;8.10;3.97;;;26.00;99.90;;;;;;5034963;28;20223;-78
2021/07/10 11:50:33;;;;;;;5.37;3.30;;;25.80;26.70;;;;;;5036750;28;20175;-76
2021/07/10 11:53:11;;;;;;;4.33;3.40;;;25.40;99.90;;;;;;5034881;28;20208;-79
2021/07/10 11:55:42;;;;;;;7.80;3.60;;;25.50;1.00;;;;;;5036064;28;20172;-78
2021/07/10 11:58:11;;;;;;;6.10;3.20;;;25.60;6.30;;;;;;5036198;28;20199;-79
2021/07/10 12:00:37;;;;;;;3.80;3.13;;;25.80;99.90;;;;;;5038138;28;20170;-79
2021/07/10 12:03:04;;;;;;;4.83;3.20;;;25.70;1.00;;;;;;5040703;28;20575;-80
2021/07/10 12:05:33;;;;;;;5.00;3.27;;;25.50;1.00;;;;;;5044360;28;20168;-77
2021/07/10 12:08:02;;;;;;;4.63;3.00;;;25.50;99.90;;;;;;5040573;28;20225;-79
2021/07/10 12:10:29;;;;;;;6.70;4.00;;;25.90;99.90;;;;;;5041980;28;20170;-80
2021/07/10 12:13:00;;;;;;;5.50;3.90;;;25.80;99.90;;;;;;5042987;28;20178;-79
2021/07/10 12:15:31;;;;;;;5.17;3.40;;;25.60;99.90;;;;;;5037723;28;20164;-78
2021/07/10 12:17:59;;;;;;;6.00;4.00;;;25.50;99.90;;;;;;5035772;28;20646;-77
2021/07/10 12:20:30;;;;;;;4.87;3.13;;;25.60;99.90;;;;;;5036297;28;20189;-77
2021/07/10 12:22:58;;;;;;;4.87;3.03;;;25.80;1.00;;;;;;5035274;28;20228;-80
2021/07/10 12:25:32;;;;;;;5.57;3.47;;;25.90;1.00;;;;;;5035574;28;20177;-79
2021/07/10 12:28:03;;;;;;;5.87;3.70;;;25.80;99.90;;;;;;5035450;28;20201;-78
2021/07/10 12:30:48;;;;;;;5.90;3.50;;;25.90;99.90;;;;;;5035729;28;20162;-82
2021/07/10 12:33:55;;;;;;;5.50;3.37;;;26.00;1.00;;;;;;5036667;28;20188;-79
2021/07/10 12:36:23;;;;;;;6.67;3.83;;;26.00;1.00;;;;;;5016090;28;20268;-79
2021/07/10 12:38:52;;;;;;;6.23;3.90;;;26.00;99.90;;;;;;5035569;28;20166;-80
2021/07/10 12:41:18;;;;;;;6.20;3.30;;;25.90;99.90;;;;;;5036285;28;20187;-79
2021/07/10 12:43:44;;;;;;;5.87;3.20;;;25.50;1.00;;;;;;5035873;28;20206;-80
2021/07/10 12:46:10;;;;;;;4.70;3.50;;;25.20;91.00;;;;;;5036096;28;20224;-81